createdAt,value
2022-08-17T00:02:26.485Z,24.90
2022-08-17T00:07:30.080Z,24.90
2022-08-17T00:12:42.595Z,24.80
2022-08-17T00:17:49.881Z,24.90
2022-08-17T00:23:04.472Z,24.90
2022-08-17T00:28:07.618Z,24.80
2022-08-17T00:33:16.215Z,24.90
2022-08-17T00:38:20.668Z,24.80
2022-08-17T00:43:29.620Z,24.80
2022-08-17T00:48:34.659Z,24.80
2022-08-17T00:53:41.899Z,24.90
2022-08-17T00:58:45.691Z,24.90
2022-08-17T01:03:51.468Z,24.80
2022-08-17T01:08:57.724Z,24.80
2022-08-17T01:14:01.267Z,24.90
2022-08-17T01:19:09.198Z,24.80
2022-08-17T01:24:13.647Z,24.90
2022-08-17T01:29:17.139Z,24.90
2022-08-17T01:34:21.233Z,24.90
2022-08-17T01:39:29.414Z,24.80
2022-08-17T01:44:33.207Z,24.80
2022-08-17T01:49:36.261Z,24.80
2022-08-17T01:54:43.417Z,24.80
2022-08-17T01:59:46.410Z,24.80
2022-08-17T02:04:49.435Z,24.80
2022-08-17T02:09:53.868Z,24.80
2022-08-17T02:14:57.349Z,24.80
2022-08-17T02:20:00.402Z,24.80
2022-08-17T02:25:09.179Z,24.80
2022-08-17T02:30:59.779Z,24.80
2022-08-17T02:35:39.659Z,24.80
2022-08-17T02:40:44.075Z,24.80
2022-08-17T02:45:48.237Z,24.80
2022-08-17T02:50:51.263Z,24.80
2022-08-17T02:55:55.669Z,24.80
2022-08-17T03:00:58.726Z,24.80
2022-08-17T03:06:02.904Z,24.80
2022-08-17T03:11:07.275Z,24.80
2022-08-17T03:16:10.422Z,24.70
2022-08-17T03:21:13.532Z,24.80
2022-08-17T03:26:17.955Z,24.80
2022-08-17T03:31:22.640Z,24.80
2022-08-17T03:36:25.751Z,24.80
2022-08-17T03:41:30.190Z,24.80
2022-08-17T03:46:50.555Z,24.80
2022-08-17T03:52:11.302Z,24.80
2022-08-17T03:57:16.370Z,24.80
2022-08-17T04:02:23.188Z,24.80
2022-08-17T04:07:28.500Z,24.80
2022-08-17T04:12:44.848Z,24.80
2022-08-17T04:17:48.233Z,24.80
2022-08-17T04:22:59.147Z,24.80
2022-08-17T04:28:05.284Z,24.80
2022-08-17T04:33:14.537Z,24.80
2022-08-17T04:38:20.134Z,24.80
2022-08-17T04:43:26.410Z,24.80
2022-08-17T04:48:36.410Z,24.80
2022-08-17T04:53:41.863Z,24.80
2022-08-17T04:58:49.881Z,24.90
2022-08-17T05:03:54.126Z,25.00
2022-08-17T05:08:57.759Z,25.00
2022-08-17T05:14:02.232Z,25.10
2022-08-17T05:19:05.382Z,25.10
2022-08-17T05:24:35.388Z,25.00
2022-08-17T05:29:35.213Z,25.00
2022-08-17T05:34:39.287Z,25.00
2022-08-17T05:39:42.363Z,25.10
2022-08-17T05:44:46.771Z,25.10
2022-08-17T05:49:49.934Z,25.20
2022-08-17T05:55:04.355Z,25.30
2022-08-17T06:00:17.007Z,25.20
2022-08-17T06:05:37.255Z,25.30
2022-08-17T06:10:46.539Z,25.20
2022-08-17T06:15:57.383Z,25.20
2022-08-17T06:21:04.404Z,25.20
2022-08-17T06:26:12.649Z,25.20
2022-08-17T06:31:23.550Z,25.30
2022-08-17T06:36:40.205Z,25.40
2022-08-17T06:41:50.871Z,25.40
2022-08-17T06:47:03.669Z,25.40
2022-08-17T06:52:45.403Z,25.40
2022-08-17T06:57:43.391Z,25.40
2022-08-17T07:02:54.307Z,25.40
2022-08-17T07:08:02.540Z,25.50
2022-08-17T07:13:30.646Z,25.70
2022-08-17T07:18:35.175Z,25.70
2022-08-17T07:23:50.971Z,25.70
2022-08-17T07:28:56.145Z,25.70
2022-08-17T07:34:06.813Z,25.70
2022-08-17T07:39:11.556Z,25.90
2022-08-17T07:44:16.490Z,25.80
2022-08-17T07:49:25.667Z,25.90
2022-08-17T07:54:33.105Z,26.10
2022-08-17T07:59:38.246Z,26.20
2022-08-17T08:05:08.594Z,26.20
2022-08-17T08:10:17.187Z,26.30
2022-08-17T08:15:22.600Z,26.40
2022-08-17T08:20:51.949Z,26.50
2022-08-17T08:26:13.147Z,26.50
2022-08-17T08:31:26.416Z,26.60
2022-08-17T08:37:12.638Z,26.60
2022-08-17T08:42:16.843Z,26.60
2022-08-17T08:47:43.820Z,26.70
2022-08-17T08:53:11.024Z,26.70
2022-08-17T08:58:31.415Z,26.80
2022-08-17T09:04:23.722Z,26.80
2022-08-17T09:09:36.977Z,26.90
2022-08-17T09:14:47.362Z,26.90
2022-08-17T09:19:55.632Z,26.90
2022-08-17T09:25:07.701Z,26.80
2022-08-17T09:30:12.892Z,26.80
2022-08-17T09:35:19.815Z,26.90
2022-08-17T09:40:28.308Z,26.90
2022-08-17T09:45:35.294Z,26.80
2022-08-17T09:51:05.013Z,26.80
2022-08-17T09:56:26.220Z,26.80
2022-08-17T10:01:35.506Z,26.90
2022-08-17T10:06:48.888Z,27.10
2022-08-17T10:12:20.081Z,27.10
2022-08-17T10:17:30.148Z,27.20
2022-08-17T10:22:55.842Z,27.20
2022-08-17T10:28:05.620Z,27.20
2022-08-17T10:33:15.812Z,27.20
2022-08-17T10:38:45.973Z,27.20
2022-08-17T10:44:39.013Z,27.20
2022-08-17T10:49:30.356Z,27.20
2022-08-17T10:54:39.948Z,27.20
2022-08-17T10:59:52.390Z,27.30
2022-08-17T11:05:10.216Z,27.30
2022-08-17T11:10:37.203Z,27.40
2022-08-17T11:15:51.474Z,27.40
2022-08-17T11:21:34.731Z,27.40
2022-08-17T11:26:46.148Z,27.40
2022-08-17T11:32:04.929Z,27.30
2022-08-17T11:37:33.977Z,27.40
2022-08-17T11:43:00.785Z,27.40
2022-08-17T11:48:33.272Z,27.40
2022-08-17T11:54:31.239Z,27.50
2022-08-17T12:00:10.619Z,27.50
2022-08-17T12:05:33.241Z,27.50
2022-08-17T12:10:40.995Z,27.40
2022-08-17T12:15:48.675Z,27.40
2022-08-17T12:21:13.373Z,27.40
2022-08-17T12:26:20.124Z,27.40
2022-08-17T12:31:27.486Z,27.40
2022-08-17T12:36:33.422Z,27.50
2022-08-17T12:41:40.817Z,27.50
2022-08-17T12:46:53.614Z,27.50
2022-08-17T12:52:13.600Z,27.50
2022-08-17T12:57:19.640Z,27.40
2022-08-17T13:02:40.341Z,27.50
2022-08-17T13:07:46.600Z,27.40
2022-08-17T13:12:51.392Z,27.50
2022-08-17T13:18:05.350Z,27.50
2022-08-17T13:23:20.451Z,27.60
2022-08-17T13:28:32.464Z,27.50
2022-08-17T13:33:44.827Z,27.50
2022-08-17T13:38:51.171Z,27.50
2022-08-17T13:43:54.269Z,27.50
2022-08-17T13:49:03.242Z,27.60
2022-08-17T13:54:30.592Z,27.60
2022-08-17T13:59:54.333Z,27.60
2022-08-17T14:05:00.559Z,27.60
2022-08-17T14:10:10.205Z,27.60
2022-08-17T14:15:15.849Z,27.60
2022-08-17T14:20:22.874Z,27.70
2022-08-17T14:25:30.470Z,27.60
2022-08-17T14:30:35.565Z,27.70
2022-08-17T14:35:38.648Z,27.60
2022-08-17T14:40:43.168Z,27.60
2022-08-17T14:45:46.191Z,27.60
2022-08-17T14:50:49.414Z,27.60
2022-08-17T14:55:54.121Z,27.60
2022-08-17T15:00:57.545Z,27.60
2022-08-17T15:06:00.653Z,27.60
2022-08-17T15:11:05.798Z,27.60
2022-08-17T15:16:17.744Z,27.60
2022-08-17T15:21:20.864Z,27.60
2022-08-17T15:26:26.421Z,27.60
2022-08-17T15:31:31.908Z,27.60
2022-08-17T15:36:35.688Z,27.60
2022-08-17T15:41:40.175Z,27.70
2022-08-17T15:46:43.224Z,27.70
2022-08-17T15:51:46.615Z,27.70
2022-08-17T15:56:51.123Z,27.70
2022-08-17T16:03:11.138Z,27.70
2022-08-17T16:07:21.918Z,27.70
2022-08-17T16:12:30.523Z,27.70
2022-08-17T16:17:39.901Z,27.70
2022-08-17T16:22:46.802Z,27.70
2022-08-17T16:27:53.512Z,27.60
2022-08-17T16:32:59.642Z,27.60
2022-08-17T16:38:02.957Z,27.60
2022-08-17T16:43:10.642Z,27.60
2022-08-17T16:48:15.360Z,27.60
2022-08-17T16:53:20.155Z,27.60
2022-08-17T16:58:24.630Z,27.50
2022-08-17T17:03:30.800Z,27.50
2022-08-17T17:08:43.641Z,27.50
2022-08-17T17:13:54.008Z,27.50
2022-08-17T17:19:09.157Z,27.50
2022-08-17T17:24:17.954Z,27.50
2022-08-17T17:29:48.588Z,27.50
2022-08-17T17:34:56.119Z,27.50
2022-08-17T17:40:02.947Z,27.40
2022-08-17T17:45:18.152Z,27.40
2022-08-17T17:50:25.211Z,27.40
2022-08-17T17:55:40.998Z,27.40
2022-08-17T18:00:52.811Z,27.30
2022-08-17T18:06:15.004Z,27.30
2022-08-17T18:11:33.080Z,27.30
2022-08-17T18:16:42.773Z,27.30
2022-08-17T18:21:52.170Z,27.30
2022-08-17T18:26:57.639Z,27.30
2022-08-17T18:32:22.796Z,27.30
2022-08-17T18:37:33.721Z,27.30
2022-08-17T18:42:38.666Z,27.30
2022-08-17T18:47:54.036Z,27.30
2022-08-17T18:53:26.709Z,27.20
2022-08-17T18:58:33.435Z,27.10
2022-08-17T19:03:44.183Z,27.10
2022-08-17T19:08:47.203Z,27.10
2022-08-17T19:13:55.762Z,27.10
2022-08-17T19:19:07.331Z,27.10
2022-08-17T19:24:19.370Z,27.10
2022-08-17T19:29:27.466Z,27.10
2022-08-17T19:34:35.419Z,27.00
2022-08-17T19:39:48.096Z,27.00
2022-08-17T19:44:57.648Z,27.00
2022-08-17T19:50:09.628Z,26.90
2022-08-17T19:55:22.047Z,27.00
2022-08-17T20:00:25.280Z,27.00
2022-08-17T20:06:00.915Z,27.00
2022-08-17T20:11:01.341Z,27.00
2022-08-17T20:16:05.570Z,27.00
2022-08-17T20:21:20.058Z,26.90
2022-08-17T20:26:27.584Z,26.90
2022-08-17T20:31:46.857Z,26.90
2022-08-17T20:37:02.198Z,26.90
2022-08-17T20:42:31.324Z,26.80
2022-08-17T20:47:55.158Z,26.80
2022-08-17T20:53:08.244Z,26.80
2022-08-17T20:58:47.180Z,26.90
2022-08-17T21:03:53.177Z,26.80
2022-08-17T21:09:19.601Z,26.80
2022-08-17T21:14:32.809Z,26.80
2022-08-17T21:20:08.204Z,26.90
2022-08-17T21:25:27.359Z,26.90
2022-08-17T21:30:51.487Z,26.80
2022-08-17T21:36:25.935Z,26.80
2022-08-17T21:41:33.522Z,26.80
2022-08-17T21:46:42.936Z,26.80
2022-08-17T21:51:53.788Z,26.80
2022-08-17T21:57:00.348Z,26.80
2022-08-17T22:02:06.076Z,26.80
2022-08-17T22:07:11.304Z,26.70
2022-08-17T22:12:18.395Z,26.80
2022-08-17T22:17:25.732Z,26.70
2022-08-17T22:22:56.584Z,26.70
2022-08-17T22:28:03.139Z,26.70
2022-08-17T22:33:32.332Z,26.70
2022-08-17T22:38:35.426Z,26.60
2022-08-17T22:43:43.747Z,26.60
2022-08-17T22:48:50.287Z,26.60
2022-08-17T22:54:13.385Z,26.60
2022-08-17T22:59:35.851Z,26.60
2022-08-17T23:04:41.721Z,26.60
2022-08-17T23:09:55.217Z,26.50
2022-08-17T23:15:02.013Z,26.50
2022-08-17T23:20:08.249Z,26.50
2022-08-17T23:25:18.171Z,26.50
2022-08-17T23:30:28.593Z,26.50
2022-08-17T23:35:40.635Z,26.50
2022-08-17T23:40:44.052Z,26.40
2022-08-17T23:45:48.666Z,26.50
2022-08-17T23:50:54.437Z,26.40
2022-08-17T23:56:04.565Z,26.40
